createdAt,value
2023-11-16T00:00:15.733Z,101296.78
2023-11-16T00:02:44.050Z,101301.06
2023-11-16T00:05:17.505Z,101293.19
2023-11-16T00:07:49.042Z,101293.38
2023-11-16T00:10:17.765Z,101281.63
2023-11-16T00:12:44.419Z,101288.06
2023-11-16T00:15:11.862Z,101284.16
2023-11-16T00:17:38.893Z,101300.84
2023-11-16T00:20:10.352Z,101303.69
2023-11-16T00:22:36.927Z,101306.50
2023-11-16T00:25:07.039Z,101301.94
2023-11-16T00:27:34.464Z,101297.03
2023-11-16T00:30:01.350Z,101299.25
2023-11-16T00:32:28.189Z,101298.63
2023-11-16T00:34:54.673Z,101292.59
2023-11-16T00:37:21.127Z,101304.75
2023-11-16T00:39:48.519Z,101299.38
2023-11-16T00:42:15.052Z,101296.41
2023-11-16T00:44:41.873Z,101295.03
2023-11-16T00:47:09.746Z,101297.41
2023-11-16T00:49:36.194Z,101307.97
2023-11-16T00:52:02.678Z,101301.78
2023-11-16T00:54:29.830Z,101304.50
2023-11-16T00:56:56.339Z,101311.56
2023-11-16T00:59:23.751Z,101322.13
2023-11-16T01:01:50.596Z,101326.38
2023-11-16T01:04:17.409Z,101315.22
2023-11-16T01:06:45.860Z,101334.19
2023-11-16T01:09:12.447Z,101338.94
2023-11-16T01:11:40.593Z,101343.44
2023-11-16T01:14:09.407Z,101361.59
2023-11-16T01:16:42.002Z,101340.69
2023-11-16T01:19:13.903Z,101362.88
2023-11-16T01:21:45.621Z,101360.06
2023-11-16T01:24:12.762Z,101370.78
2023-11-16T01:26:41.176Z,101375.31
2023-11-16T01:29:11.066Z,101386.16
2023-11-16T01:31:41.448Z,101374.31
2023-11-16T01:34:11.414Z,101386.97
2023-11-16T01:36:38.809Z,101392.84
2023-11-16T01:39:06.013Z,101354.09
2023-11-16T01:41:32.476Z,101407.09
2023-11-16T01:44:00.182Z,101418.31
2023-11-16T01:46:32.112Z,101422.44
2023-11-16T01:48:59.059Z,101428.66
2023-11-16T01:51:28.255Z,101437.97
2023-11-16T01:54:04.174Z,101434.63
2023-11-16T01:56:32.765Z,101453.69
2023-11-16T01:59:02.650Z,101427.59
2023-11-16T02:01:34.841Z,101458.66
2023-11-16T02:04:08.423Z,101467.00
2023-11-16T02:06:39.694Z,101470.81
2023-11-16T02:09:06.173Z,101481.84
2023-11-16T02:11:32.724Z,101479.59
2023-11-16T02:13:59.533Z,101484.84
2023-11-16T02:16:26.055Z,101475.16
2023-11-16T02:18:53.445Z,101487.25
2023-11-16T02:21:19.951Z,101500.66
2023-11-16T02:23:48.976Z,101504.81
2023-11-16T02:26:15.433Z,101508.25
2023-11-16T02:28:41.890Z,101504.75
2023-11-16T02:31:08.857Z,101514.97
2023-11-16T02:33:35.619Z,101523.25
2023-11-16T02:36:02.257Z,101523.97
2023-11-16T02:38:28.860Z,101532.59
2023-11-16T02:40:55.625Z,101523.19
2023-11-16T02:43:23.117Z,101536.13
2023-11-16T02:45:49.742Z,101533.63
2023-11-16T02:48:16.783Z,101537.53
2023-11-16T02:50:44.172Z,101540.34
2023-11-16T02:53:11.380Z,101537.81
2023-11-16T02:55:37.810Z,101548.09
2023-11-16T02:58:04.320Z,101547.53
2023-11-16T03:00:33.192Z,101551.22
2023-11-16T03:02:59.749Z,101521.03
2023-11-16T03:05:26.564Z,101546.94
2023-11-16T03:07:54.672Z,101548.88
2023-11-16T03:10:21.250Z,101562.13
2023-11-16T03:12:47.751Z,101550.59
2023-11-16T03:15:14.586Z,101542.22
2023-11-16T03:17:44.854Z,101566.81
2023-11-16T03:20:18.579Z,101559.28
2023-11-16T03:22:45.542Z,101569.38
2023-11-16T03:25:12.457Z,101574.69
2023-11-16T03:27:39.193Z,101571.00
2023-11-16T03:30:06.585Z,101570.31
2023-11-16T03:32:33.139Z,101576.03
2023-11-16T03:34:59.840Z,101563.03
2023-11-16T03:37:26.644Z,101578.88
2023-11-16T03:39:53.116Z,101538.25
2023-11-16T03:42:19.783Z,101573.25
2023-11-16T03:44:46.384Z,101576.09
2023-11-16T03:47:12.945Z,101567.66
2023-11-16T03:49:39.425Z,101579.81
2023-11-16T03:52:06.227Z,101575.44
2023-11-16T03:54:32.747Z,101581.03
2023-11-16T03:57:00.476Z,101581.44
2023-11-16T03:59:26.940Z,101584.88
2023-11-16T04:01:53.511Z,101550.25
2023-11-16T04:04:20.884Z,101596.31
2023-11-16T04:06:48.065Z,101563.72
2023-11-16T04:09:15.745Z,101599.19
2023-11-16T04:11:43.408Z,101596.72
2023-11-16T04:14:11.159Z,101603.78
2023-11-16T04:16:37.778Z,101610.66
2023-11-16T04:19:05.508Z,101613.06
2023-11-16T04:21:32.704Z,101595.47
2023-11-16T04:24:00.660Z,101617.22
2023-11-16T04:26:30.776Z,101618.22
2023-11-16T04:29:06.273Z,101608.63
2023-11-16T04:31:34.271Z,101562.09
2023-11-16T04:34:01.480Z,101606.09
2023-11-16T04:36:33.429Z,101620.69
2023-11-16T04:39:01.303Z,101587.06
2023-11-16T04:41:29.475Z,101572.41
2023-11-16T04:43:57.948Z,101614.09
2023-11-16T04:46:27.477Z,101612.63
2023-11-16T04:48:55.431Z,101614.78
2023-11-16T04:51:23.018Z,101607.94
2023-11-16T04:53:50.957Z,101576.78
2023-11-16T04:56:17.839Z,101587.56
2023-11-16T04:58:45.381Z,101612.38
2023-11-16T05:01:15.920Z,101613.84
2023-11-16T05:03:45.693Z,101610.22
2023-11-16T05:06:13.680Z,101619.19
2023-11-16T05:08:41.399Z,101612.19
2023-11-16T05:11:08.623Z,101617.75
2023-11-16T05:13:35.757Z,101592.38
2023-11-16T05:16:04.408Z,101594.34
2023-11-16T05:18:31.001Z,101619.53
2023-11-16T05:20:57.590Z,101621.19
2023-11-16T05:23:24.105Z,101627.31
2023-11-16T05:25:50.848Z,101626.81
2023-11-16T05:28:17.293Z,101618.59
2023-11-16T05:30:45.226Z,101622.22
2023-11-16T05:33:11.854Z,101635.06
2023-11-16T05:35:40.116Z,101637.84
2023-11-16T05:38:06.588Z,101637.00
2023-11-16T05:40:33.169Z,101637.72
2023-11-16T05:42:59.704Z,101642.69
2023-11-16T05:45:26.345Z,101633.75
2023-11-16T05:47:52.860Z,101639.41
2023-11-16T05:50:20.563Z,101625.13
2023-11-16T05:52:48.147Z,101621.25
2023-11-16T05:55:14.618Z,101637.38
2023-11-16T05:57:43.519Z,101636.25
2023-11-16T06:00:12.507Z,101621.25
2023-11-16T06:02:40.920Z,101633.13
2023-11-16T06:05:10.305Z,101640.47
2023-11-16T06:07:37.951Z,101628.25
2023-11-16T06:10:07.030Z,101631.38
2023-11-16T06:12:34.375Z,101646.63
2023-11-16T06:15:01.709Z,101633.66
2023-11-16T06:17:28.200Z,101627.50
2023-11-16T06:19:54.692Z,101631.84
2023-11-16T06:22:21.955Z,101637.66
2023-11-16T06:24:48.526Z,101629.66
2023-11-16T06:27:15.150Z,101630.09
2023-11-16T06:29:41.763Z,101634.59
2023-11-16T06:32:08.510Z,101637.63
2023-11-16T06:34:35.806Z,101639.09
2023-11-16T06:37:02.360Z,101644.88
2023-11-16T06:39:30.146Z,101645.63
2023-11-16T06:41:57.656Z,101647.53
2023-11-16T06:44:24.146Z,101655.03
2023-11-16T06:46:50.735Z,101654.38
2023-11-16T06:49:18.024Z,101652.59
2023-11-16T06:51:44.594Z,101650.53
2023-11-16T06:54:12.774Z,101654.53
2023-11-16T06:56:41.375Z,101643.88
2023-11-16T06:59:16.359Z,101649.31
2023-11-16T07:01:44.190Z,101651.47
2023-11-16T07:04:10.983Z,101658.38
2023-11-16T07:06:38.303Z,101658.19
2023-11-16T07:09:05.046Z,101660.75
2023-11-16T07:11:32.500Z,101630.47
2023-11-16T07:13:59.053Z,101656.53
2023-11-16T07:16:25.545Z,101658.81
2023-11-16T07:18:53.628Z,101625.06
2023-11-16T07:21:20.245Z,101661.56
2023-11-16T07:23:46.731Z,101661.78
2023-11-16T07:26:13.310Z,101670.25
2023-11-16T07:28:39.805Z,101674.81
2023-11-16T07:31:07.146Z,101684.59
2023-11-16T07:33:36.735Z,101668.19
2023-11-16T07:36:03.608Z,101655.97
2023-11-16T07:38:30.144Z,101669.50
2023-11-16T07:40:59.797Z,101652.53
2023-11-16T07:43:26.260Z,101645.94
2023-11-16T07:45:53.937Z,101638.34
2023-11-16T07:48:21.624Z,101623.44
2023-11-16T07:50:48.120Z,101628.28
2023-11-16T07:53:14.680Z,101630.22
2023-11-16T07:55:43.509Z,101623.81
2023-11-16T07:58:14.350Z,101635.44
2023-11-16T08:01:05.150Z,101640.25
2023-11-16T08:03:44.520Z,101643.50
2023-11-16T08:06:16.191Z,101646.06
2023-11-16T08:08:44.755Z,101622.84
2023-11-16T08:11:13.342Z,101617.75
2023-11-16T08:13:42.268Z,101605.88
2023-11-16T08:16:16.571Z,101608.13
2023-11-16T08:18:43.999Z,101602.16
2023-11-16T08:21:11.374Z,101608.41
2023-11-16T08:23:48.804Z,101616.03
2023-11-16T08:26:19.805Z,101609.78
2023-11-16T08:28:47.856Z,101617.31
2023-11-16T08:31:15.298Z,101623.69
2023-11-16T08:33:43.126Z,101595.63
2023-11-16T08:36:12.145Z,101619.13
2023-11-16T08:38:42.804Z,101609.88
2023-11-16T08:41:16.501Z,101615.47
2023-11-16T08:43:47.887Z,101618.38
2023-11-16T08:46:26.715Z,101619.66
2023-11-16T08:48:53.455Z,101619.59
2023-11-16T08:51:24.158Z,101626.13
2023-11-16T08:53:57.607Z,101621.31
2023-11-16T08:56:31.415Z,101612.72
2023-11-16T08:59:08.803Z,101608.72
2023-11-16T09:01:39.702Z,101606.00
2023-11-16T09:04:07.028Z,101595.34
2023-11-16T09:06:34.017Z,101601.50
2023-11-16T09:09:11.206Z,101591.19
2023-11-16T09:11:38.131Z,101599.97
2023-11-16T09:14:05.672Z,101593.59
2023-11-16T09:16:33.047Z,101593.59
2023-11-16T09:19:00.571Z,101572.88
2023-11-16T09:21:27.703Z,101593.56
2023-11-16T09:23:55.700Z,101592.22
2023-11-16T09:26:25.069Z,101601.59
2023-11-16T09:29:01.220Z,101596.66
2023-11-16T09:31:34.259Z,101602.97
2023-11-16T09:34:01.689Z,101589.41
2023-11-16T09:36:28.493Z,101596.19
2023-11-16T09:38:58.203Z,101604.38
2023-11-16T09:41:26.616Z,101609.06
2023-11-16T09:43:56.421Z,101605.78
2023-11-16T09:46:30.349Z,101603.75
2023-11-16T09:48:59.777Z,101601.44
2023-11-16T09:51:30.759Z,101587.22
2023-11-16T09:54:02.221Z,101595.69
2023-11-16T09:56:36.502Z,101592.94
2023-11-16T09:59:26.430Z,101565.03
2023-11-16T10:02:00.618Z,101604.81
2023-11-16T10:04:29.269Z,101605.94
2023-11-16T10:06:58.169Z,101593.91
2023-11-16T10:09:27.382Z,101597.31
2023-11-16T10:11:53.846Z,101590.81
2023-11-16T10:14:20.309Z,101587.94
2023-11-16T10:16:47.492Z,101590.25
2023-11-16T10:19:16.657Z,101588.94
2023-11-16T10:21:49.574Z,101574.47
2023-11-16T10:24:17.152Z,101583.00
2023-11-16T10:26:53.135Z,101564.91
2023-11-16T10:29:19.609Z,101548.56
2023-11-16T10:31:47.897Z,101562.19
2023-11-16T10:34:16.957Z,101555.59
2023-11-16T10:36:45.280Z,101536.91
2023-11-16T10:39:13.212Z,101546.13
2023-11-16T10:41:40.573Z,101555.91
2023-11-16T10:44:09.270Z,101543.63
2023-11-16T10:46:36.195Z,101535.19
2023-11-16T10:49:02.850Z,101524.09
2023-11-16T10:51:30.886Z,101541.50
2023-11-16T10:54:04.380Z,101535.25
2023-11-16T10:56:41.618Z,101526.19
2023-11-16T10:59:12.360Z,101513.38
2023-11-16T11:01:39.564Z,101509.63
2023-11-16T11:04:10.037Z,101499.00
2023-11-16T11:06:43.078Z,101509.06
2023-11-16T11:09:10.584Z,101509.88
2023-11-16T11:11:42.041Z,101509.34
2023-11-16T11:14:11.887Z,101505.47
2023-11-16T11:16:42.035Z,101499.75
2023-11-16T11:19:10.717Z,101501.16
2023-11-16T11:21:50.358Z,101502.09
2023-11-16T11:24:17.033Z,101523.44
2023-11-16T11:26:52.017Z,101523.22
2023-11-16T11:29:24.773Z,101531.19
2023-11-16T11:32:01.567Z,101535.81
2023-11-16T11:34:31.091Z,101531.97
2023-11-16T11:36:57.697Z,101530.19
2023-11-16T11:39:27.924Z,101523.84
2023-11-16T11:42:00.977Z,101534.78
2023-11-16T11:44:28.318Z,101499.47
2023-11-16T11:46:57.254Z,101504.50
2023-11-16T11:49:25.313Z,101501.31
2023-11-16T11:51:54.101Z,101498.78
2023-11-16T11:54:20.690Z,101489.44
2023-11-16T11:56:48.021Z,101477.44
2023-11-16T11:59:15.056Z,101481.84
2023-11-16T12:01:41.771Z,101478.72
2023-11-16T12:04:16.611Z,101475.94
2023-11-16T12:06:46.577Z,101463.66
2023-11-16T12:09:13.221Z,101463.56
2023-11-16T12:11:43.000Z,101459.72
2023-11-16T12:14:12.087Z,101464.91
2023-11-16T12:16:38.905Z,101459.94
2023-11-16T12:19:09.926Z,101465.88
2023-11-16T12:21:40.662Z,101466.50
2023-11-16T12:24:09.813Z,101467.22
2023-11-16T12:26:37.022Z,101443.97
2023-11-16T12:29:12.474Z,101469.13
2023-11-16T12:31:40.361Z,101475.91
2023-11-16T12:34:07.821Z,101471.91
2023-11-16T12:36:37.281Z,101471.47
2023-11-16T12:39:06.943Z,101460.91
2023-11-16T12:41:38.288Z,101468.69
2023-11-16T12:44:05.115Z,101466.31
2023-11-16T12:46:32.222Z,101461.88
2023-11-16T12:48:58.884Z,101456.69
2023-11-16T12:51:26.696Z,101449.19
2023-11-16T12:53:53.163Z,101440.88
2023-11-16T12:56:21.113Z,101448.97
2023-11-16T12:58:47.645Z,101437.44
2023-11-16T13:01:14.637Z,101440.09
2023-11-16T13:03:49.557Z,101441.41
2023-11-16T13:06:18.703Z,101408.41
2023-11-16T13:08:45.576Z,101433.91
2023-11-16T13:11:14.466Z,101414.06
2023-11-16T13:13:41.251Z,101417.50
2023-11-16T13:16:09.810Z,101424.59
2023-11-16T13:18:36.805Z,101420.25
2023-11-16T13:21:11.386Z,101428.53
2023-11-16T13:23:40.922Z,101420.38
2023-11-16T13:26:07.568Z,101402.88
2023-11-16T13:28:34.089Z,101426.25
2023-11-16T13:31:02.277Z,101379.81
2023-11-16T13:33:29.618Z,101420.78
2023-11-16T13:35:56.442Z,101420.31
2023-11-16T13:38:23.614Z,101418.16
2023-11-16T13:40:50.580Z,101411.38
2023-11-16T13:43:17.178Z,101393.66
2023-11-16T13:45:43.682Z,101404.50
2023-11-16T13:48:10.221Z,101403.91
2023-11-16T13:50:37.509Z,101393.69
2023-11-16T13:53:03.948Z,101396.53
2023-11-16T13:55:30.920Z,101392.78
2023-11-16T13:57:57.430Z,101391.72
2023-11-16T14:00:28.985Z,101382.69
2023-11-16T14:02:55.841Z,101356.53
2023-11-16T14:05:23.298Z,101392.13
2023-11-16T14:07:49.808Z,101394.75
2023-11-16T14:10:23.300Z,101402.97
2023-11-16T14:12:54.426Z,101401.91
2023-11-16T14:15:22.248Z,101400.72
2023-11-16T14:17:49.003Z,101408.09
2023-11-16T14:20:15.623Z,101407.13
2023-11-16T14:22:42.116Z,101370.47
2023-11-16T14:25:09.091Z,101405.81
2023-11-16T14:27:38.603Z,101401.59
2023-11-16T14:30:06.205Z,101358.88
2023-11-16T14:32:33.032Z,101405.00
2023-11-16T14:35:13.881Z,101404.03
2023-11-16T14:37:46.540Z,101401.38
2023-11-16T14:40:13.671Z,101363.97
2023-11-16T14:42:40.301Z,101406.97
2023-11-16T14:45:07.331Z,101410.94
2023-11-16T14:47:39.515Z,101405.63
2023-11-16T14:50:09.990Z,101415.59
2023-11-16T14:52:37.306Z,101409.25
2023-11-16T14:55:08.154Z,101405.63
2023-11-16T14:57:35.483Z,101411.25
2023-11-16T15:00:02.684Z,101403.38
2023-11-16T15:02:29.379Z,101401.94
2023-11-16T15:05:02.731Z,101404.19
2023-11-16T15:07:34.177Z,101406.47
2023-11-16T15:10:01.030Z,101409.81
2023-11-16T15:12:27.538Z,101404.34
2023-11-16T15:14:53.990Z,101400.22
2023-11-16T15:17:22.681Z,101404.59
2023-11-16T15:19:49.429Z,101413.28
2023-11-16T15:22:16.044Z,101419.09
2023-11-16T15:24:42.987Z,101416.25
2023-11-16T15:27:12.530Z,63418.59
2023-11-16T15:29:40.297Z,63418.59
2023-11-16T15:32:19.846Z,63418.59
2023-11-16T15:34:46.647Z,63418.59
2023-11-16T15:37:13.326Z,63418.59
2023-11-16T15:39:40.226Z,63418.59
2023-11-16T15:42:08.018Z,63418.59
2023-11-16T15:44:34.903Z,63418.59
2023-11-16T15:47:01.557Z,63418.59
2023-11-16T15:49:28.271Z,63418.59
2023-11-16T15:51:55.036Z,63418.59
2023-11-16T15:54:21.550Z,63418.59
2023-11-16T15:56:52.456Z,63418.59
2023-11-16T15:59:19.197Z,63418.59
2023-11-16T16:01:46.362Z,63418.59
2023-11-16T16:04:13.324Z,63418.59
2023-11-16T16:06:40.387Z,63418.59
2023-11-16T16:09:09.306Z,63418.59
2023-11-16T16:11:36.230Z,63418.59
2023-11-16T16:14:02.738Z,63418.59
2023-11-16T16:16:29.215Z,63418.59
2023-11-16T16:18:56.887Z,63418.59
2023-11-16T16:21:23.467Z,63418.59
2023-11-16T16:23:49.948Z,63418.59
2023-11-16T16:26:16.419Z,63418.59
2023-11-16T16:28:43.650Z,63418.59
2023-11-16T16:31:17.708Z,63418.59
2023-11-16T16:33:44.246Z,63418.59
2023-11-16T16:36:10.908Z,63418.59
2023-11-16T16:39:36.389Z,63418.59
2023-11-16T16:43:01.781Z,63418.59
2023-11-16T16:46:27.016Z,63418.59
2023-11-16T16:49:34.584Z,63418.59
2023-11-16T16:52:59.576Z,63418.59
2023-11-16T16:56:24.522Z,63418.59
2023-11-16T16:59:50.410Z,63418.59
2023-11-16T17:03:15.416Z,63418.59
2023-11-16T17:06:40.443Z,63418.59
2023-11-16T17:10:10.204Z,63418.59
2023-11-16T17:13:35.460Z,63418.59
2023-11-16T17:17:01.241Z,63418.59
2023-11-16T17:20:26.218Z,63418.59
2023-11-16T17:23:55.162Z,63418.59
2023-11-16T17:27:20.390Z,63418.59
2023-11-16T17:30:45.336Z,63418.59
2023-11-16T17:34:11.748Z,63418.59
2023-11-16T17:37:38.015Z,63418.59
2023-11-16T17:41:07.159Z,63418.59
2023-11-16T17:44:32.899Z,63418.59
2023-11-16T17:47:57.945Z,63418.59
2023-11-16T17:51:23.216Z,63418.59
2023-11-16T17:54:48.497Z,63418.59
2023-11-16T17:58:13.894Z,63418.59
2023-11-16T18:01:39.591Z,63418.59
2023-11-16T18:05:07.452Z,63418.59
2023-11-16T18:07:35.801Z,63418.59
2023-11-16T18:10:06.336Z,63418.59
2023-11-16T18:12:33.940Z,63418.59
2023-11-16T18:15:01.294Z,63418.59
2023-11-16T18:17:27.762Z,63418.59
2023-11-16T18:19:54.680Z,63418.59
2023-11-16T18:22:21.241Z,63418.59
2023-11-16T18:24:47.963Z,63418.59
2023-11-16T18:27:15.183Z,63418.59
2023-11-16T18:29:41.652Z,63418.59
2023-11-16T18:32:08.599Z,63418.59
2023-11-16T18:34:42.426Z,63418.59
2023-11-16T18:37:13.444Z,63418.59
2023-11-16T18:39:40.006Z,63418.59
2023-11-16T18:42:08.165Z,63418.59
2023-11-16T18:44:35.795Z,63418.59
2023-11-16T18:47:03.227Z,63418.59
2023-11-16T18:49:29.996Z,63418.59
2023-11-16T18:51:59.343Z,63418.59
2023-11-16T18:54:26.254Z,63418.59
2023-11-16T18:56:52.847Z,63418.59
2023-11-16T18:59:20.034Z,63418.59
2023-11-16T19:01:48.910Z,63418.59
2023-11-16T19:04:15.927Z,63418.59
2023-11-16T19:06:51.562Z,63418.59
2023-11-16T19:09:57.528Z,63418.59
2023-11-16T19:12:29.234Z,63418.59
2023-11-16T19:14:55.704Z,63418.59
2023-11-16T19:17:22.327Z,63418.59
2023-11-16T19:19:48.865Z,63418.59
2023-11-16T19:23:14.581Z,63418.59
2023-11-16T19:25:47.599Z,63418.59
2023-11-16T19:29:16.040Z,63418.59
2023-11-16T19:32:42.170Z,63418.59
2023-11-16T19:35:19.063Z,63418.59
2023-11-16T19:38:45.822Z,63418.59
2023-11-16T19:42:11.919Z,63418.59
2023-11-16T19:45:38.414Z,63418.59
2023-11-16T19:49:04.986Z,63418.59
2023-11-16T19:52:31.382Z,63418.59
2023-11-16T19:55:56.425Z,63418.59
2023-11-16T19:59:21.351Z,63418.59
2023-11-16T20:02:48.294Z,63418.59
2023-11-16T20:06:13.825Z,63418.59
2023-11-16T20:09:39.518Z,63418.59
2023-11-16T20:13:05.263Z,63418.59
2023-11-16T20:16:31.559Z,63418.59
2023-11-16T20:19:57.262Z,63418.59
2023-11-16T20:23:24.008Z,63418.59
2023-11-16T20:26:52.160Z,63418.59
2023-11-16T20:30:18.594Z,63418.59
2023-11-16T20:33:07.559Z,63418.59
2023-11-16T20:36:32.608Z,63418.59
2023-11-16T20:39:57.682Z,63418.59
2023-11-16T20:43:23.097Z,63418.59
2023-11-16T20:46:50.216Z,63418.59
2023-11-16T20:50:16.730Z,63418.59
2023-11-16T20:53:41.895Z,63418.59
2023-11-16T20:57:07.075Z,63418.59
2023-11-16T21:00:32.384Z,63418.59
2023-11-16T21:03:59.982Z,63418.59
2023-11-16T21:07:25.051Z,63418.59
2023-11-16T21:10:50.337Z,63418.59
2023-11-16T21:14:15.304Z,63418.59
2023-11-16T21:17:40.830Z,63418.59
2023-11-16T21:21:06.143Z,63418.59
2023-11-16T21:24:31.549Z,63418.59
2023-11-16T21:27:57.340Z,63418.59
2023-11-16T21:31:22.404Z,63418.59
2023-11-16T21:34:49.011Z,63418.59
2023-11-16T21:38:14.958Z,63418.59
2023-11-16T21:41:41.977Z,63418.59
2023-11-16T21:45:08.128Z,63418.59
2023-11-16T21:48:33.515Z,63418.59
2023-11-16T21:51:59.208Z,63418.59
2023-11-16T21:55:24.623Z,63418.59
2023-11-16T21:58:50.464Z,63418.59
2023-11-16T22:02:15.974Z,63418.59
2023-11-16T22:05:42.649Z,63418.59
2023-11-16T22:09:08.925Z,63418.59
2023-11-16T22:12:34.654Z,63418.59
2023-11-16T22:15:59.821Z,63418.59
2023-11-16T22:19:25.012Z,63418.59
2023-11-16T22:22:50.307Z,63418.59
2023-11-16T22:26:15.676Z,63418.59
2023-11-16T22:29:40.615Z,63418.59
2023-11-16T22:32:07.092Z,63418.59
2023-11-16T22:35:32.087Z,63418.59
2023-11-16T22:38:57.161Z,63418.59
2023-11-16T22:41:23.728Z,63418.59
2023-11-16T22:43:50.260Z,63418.59
2023-11-16T22:46:16.865Z,63418.59
2023-11-16T22:48:43.724Z,63418.59
2023-11-16T22:51:11.601Z,63418.59
2023-11-16T22:53:38.071Z,63418.59
2023-11-16T22:56:07.608Z,63418.59
2023-11-16T22:58:35.457Z,63418.59
2023-11-16T23:01:03.895Z,63418.59
2023-11-16T23:03:31.821Z,63418.59
2023-11-16T23:05:59.745Z,63418.59
2023-11-16T23:08:26.464Z,63418.59
2023-11-16T23:10:53.748Z,63418.59
2023-11-16T23:13:21.182Z,63418.59
2023-11-16T23:15:48.200Z,63418.59
2023-11-16T23:18:14.958Z,63418.59
2023-11-16T23:20:42.368Z,63418.59
2023-11-16T23:23:10.128Z,63418.59
2023-11-16T23:25:41.490Z,63418.59
2023-11-16T23:28:09.286Z,63418.59
2023-11-16T23:30:35.927Z,63418.59
2023-11-16T23:33:02.979Z,63418.59
2023-11-16T23:35:29.535Z,63418.59
2023-11-16T23:37:57.089Z,63418.59
2023-11-16T23:40:24.210Z,63418.59
2023-11-16T23:42:50.958Z,63418.59
2023-11-16T23:45:18.460Z,63418.59
2023-11-16T23:47:47.807Z,63418.59
2023-11-16T23:50:14.567Z,63418.59
2023-11-16T23:52:41.088Z,63418.59
2023-11-16T23:55:10.751Z,63418.59
2023-11-16T23:57:41.358Z,63418.59
